Time;durP1;ratioP1;P1;durP2;ratioP2;P2;SDS_P1;SDS_P2;PMS_P1;PMS_P2;Temp;Humidity;BMP_temperature;BMP_pressure;BME280_temperature;BME280_humidity;BME280_pressure;Samples;Min_cycle;Max_cycle;Signal;HPM_P1;HPM_P2
2023/01/22 00:01:02;;;;;;;2.17;1.97;;;2.60;99.90;;;;;;5130776;27;20244;-76
2023/01/22 00:03:29;;;;;;;6.43;2.10;;;2.50;99.90;;;;;;5135809;27;20261;-77
2023/01/22 00:05:56;;;;;;;2.20;2.00;;;2.50;99.90;;;;;;5156754;27;20530;-76
2023/01/22 00:08:23;;;;;;;2.50;2.30;;;2.50;99.90;;;;;;5171733;27;20253;-76
2023/01/22 00:10:51;;;;;;;5.50;2.50;;;2.50;99.90;;;;;;5172663;27;20267;-76
2023/01/22 00:13:18;;;;;;;2.20;2.00;;;2.60;99.90;;;;;;5166845;27;20288;-77
2023/01/22 00:15:46;;;;;;;2.67;2.47;;;2.60;99.90;;;;;;5153172;27;20726;-76
2023/01/22 00:18:13;;;;;;;4.93;2.37;;;2.50;99.90;;;;;;5172345;27;20206;-78
2023/01/22 00:20:40;;;;;;;2.90;2.37;;;2.50;99.90;;;;;;5172450;27;20322;-77
2023/01/22 00:23:07;;;;;;;2.07;1.90;;;2.60;99.90;;;;;;5171962;27;20264;-76
2023/01/22 00:25:34;;;;;;;2.70;2.10;;;2.60;99.90;;;;;;5158577;27;20204;-77
2023/01/22 00:28:00;;;;;;;2.47;2.27;;;2.60;99.90;;;;;;5151028;27;20292;-76
2023/01/22 00:30:27;;;;;;;2.57;2.37;;;2.50;99.90;;;;;;5150725;27;20205;-74
2023/01/22 00:32:56;;;;;;;2.67;2.33;;;2.50;99.90;;;;;;5150080;27;20201;-78
2023/01/22 00:35:23;;;;;;;2.30;2.10;;;2.60;99.90;;;;;;5151075;27;20280;-77
2023/01/22 00:37:50;;;;;;;4.13;2.30;;;2.60;99.90;;;;;;5150981;27;20299;-77
2023/01/22 00:40:17;;;;;;;3.73;2.23;;;2.60;99.90;;;;;;5133366;27;20737;-76
2023/01/22 00:42:44;;;;;;;2.93;2.03;;;2.60;99.90;;;;;;5129867;27;20301;-76
2023/01/22 00:45:14;;;;;;;2.70;2.30;;;2.60;99.90;;;;;;5130368;27;20244;-76
2023/01/22 00:47:41;;;;;;;1.87;1.77;;;2.50;99.90;;;;;;5165843;27;20306;-77
2023/01/22 00:50:11;;;;;;;2.90;2.23;;;2.50;99.90;;;;;;5155888;27;20294;-77
2023/01/22 00:52:38;;;;;;;2.60;2.40;;;2.50;99.90;;;;;;5150779;27;20292;-77
2023/01/22 00:55:05;;;;;;;2.50;2.30;;;2.50;99.90;;;;;;5150942;27;20300;-76
2023/01/22 00:57:33;;;;;;;3.50;2.30;;;2.50;99.90;;;;;;5129883;27;20317;-76
2023/01/22 00:59:59;;;;;;;2.87;2.57;;;2.50;99.90;;;;;;5129867;27;20319;-76
2023/01/22 01:02:26;;;;;;;2.40;2.10;;;2.50;99.90;;;;;;5129529;27;20292;-76
2023/01/22 01:04:55;;;;;;;2.57;2.30;;;2.50;99.90;;;;;;5129543;27;20312;-75
2023/01/22 01:07:23;;;;;;;3.40;1.90;;;2.50;99.90;;;;;;5164765;27;20291;-75
2023/01/22 01:09:50;;;;;;;2.97;2.40;;;2.50;99.90;;;;;;5171133;27;20303;-75
2023/01/22 01:12:17;;;;;;;2.70;2.50;;;2.50;99.90;;;;;;5154802;27;20292;-75
2023/01/22 01:14:44;;;;;;;2.03;1.93;;;2.50;99.90;;;;;;5134900;27;20288;-75
2023/01/22 01:17:11;;;;;;;2.60;2.17;;;2.40;99.90;;;;;;5157313;27;20244;-75
2023/01/22 01:19:38;;;;;;;2.70;2.10;;;2.50;99.90;;;;;;5170598;27;20311;-77
2023/01/22 01:22:07;;;;;;;2.73;2.40;;;2.50;99.90;;;;;;5154536;27;20235;-74
2023/01/22 01:24:35;;;;;;;3.20;1.97;;;2.50;99.90;;;;;;5150127;27;20205;-74
2023/01/22 01:27:02;;;;;;;2.30;2.10;;;2.50;99.90;;;;;;5149945;27;20203;-74
2023/01/22 01:29:29;;;;;;;2.47;2.27;;;2.50;99.90;;;;;;5149581;27;20207;-74
2023/01/22 01:31:56;;;;;;;3.17;2.50;;;2.50;99.90;;;;;;5142168;27;20229;-75
2023/01/22 01:34:23;;;;;;;2.40;2.17;;;2.50;99.90;;;;;;5129207;27;20208;-75
2023/01/22 01:36:50;;;;;;;2.27;1.97;;;2.50;99.90;;;;;;5129091;27;20288;-75
2023/01/22 01:39:17;;;;;;;2.50;2.13;;;2.40;99.90;;;;;;5129111;27;20229;-75
2023/01/22 01:41:45;;;;;;;2.33;2.13;;;2.40;99.90;;;;;;5136252;27;20624;-75
2023/01/22 01:44:15;;;;;;;2.63;2.40;;;2.40;99.90;;;;;;5133507;27;20755;-75
2023/01/22 01:46:47;;;;;;;2.27;2.13;;;2.50;99.90;;;;;;5129554;27;20293;-75
2023/01/22 01:49:19;;;;;;;2.17;2.03;;;2.50;99.90;;;;;;5128824;27;20794;-75
2023/01/22 01:51:47;;;;;;;2.47;2.27;;;2.40;99.90;;;;;;5129379;27;20190;-75
2023/01/22 01:54:15;;;;;;;2.80;2.60;;;2.40;99.90;;;;;;5129373;27;20640;-75
2023/01/22 01:56:48;;;;;;;2.17;2.03;;;2.40;99.90;;;;;;5129098;27;20201;-75
2023/01/22 01:59:18;;;;;;;2.67;2.47;;;2.40;99.90;;;;;;5128782;28;20285;-75
2023/01/22 02:01:49;;;;;;;3.50;2.23;;;2.40;99.90;;;;;;5129075;28;20288;-75
2023/01/22 02:04:16;;;;;;;2.00;1.90;;;2.50;99.90;;;;;;5144386;27;20757;-75
2023/01/22 02:06:43;;;;;;;2.10;1.93;;;2.50;99.90;;;;;;5161880;27;20283;-75
2023/01/22 02:09:10;;;;;;;2.30;2.20;;;2.50;99.90;;;;;;5169248;27;20234;-75
2023/01/22 02:11:40;;;;;;;2.43;2.30;;;2.50;99.90;;;;;;5149393;27;20319;-75
2023/01/22 02:14:12;;;;;;;2.20;2.07;;;2.50;99.90;;;;;;5143240;27;20742;-75
2023/01/22 02:16:39;;;;;;;1.93;1.83;;;2.50;99.90;;;;;;5147181;27;20737;-75
2023/01/22 02:19:06;;;;;;;2.00;1.77;;;2.50;99.90;;;;;;5170445;27;20290;-75
2023/01/22 02:21:37;;;;;;;2.03;1.93;;;2.50;99.90;;;;;;5173957;27;20776;-75
2023/01/22 02:24:05;;;;;;;1.90;1.80;;;2.50;99.90;;;;;;5145592;27;20719;-75
2023/01/22 02:26:32;;;;;;;2.13;1.93;;;2.40;99.90;;;;;;5132869;27;20285;-75
2023/01/22 02:28:59;;;;;;;2.17;1.97;;;2.50;99.90;;;;;;5132330;27;20300;-75
2023/01/22 02:31:26;;;;;;;2.30;2.20;;;2.50;99.90;;;;;;5132233;27;20209;-75
2023/01/22 02:33:53;;;;;;;2.33;2.10;;;2.40;99.90;;;;;;5143898;27;20200;-75
2023/01/22 02:36:21;;;;;;;2.10;2.00;;;2.50;99.90;;;;;;5152730;27;20276;-75
2023/01/22 02:38:49;;;;;;;2.03;1.93;;;2.50;99.90;;;;;;5153035;27;20577;-75
2023/01/22 02:41:16;;;;;;;2.40;2.20;;;2.40;99.90;;;;;;5153389;27;20323;-75
2023/01/22 02:43:43;;;;;;;1.90;1.80;;;2.50;99.90;;;;;;5152097;27;20212;-75
2023/01/22 02:46:10;;;;;;;2.17;1.97;;;2.50;99.90;;;;;;5158702;27;20239;-76
2023/01/22 02:48:37;;;;;;;2.23;2.03;;;2.50;99.90;;;;;;5173696;27;20307;-75
2023/01/22 02:51:04;;;;;;;2.10;2.00;;;2.50;99.90;;;;;;5174128;27;20298;-75
2023/01/22 02:53:31;;;;;;;2.23;2.13;;;2.50;99.90;;;;;;5165337;27;20224;-75
2023/01/22 02:55:59;;;;;;;2.00;1.90;;;2.50;99.90;;;;;;5145950;27;20196;-75
2023/01/22 02:58:26;;;;;;;2.13;2.03;;;2.50;99.90;;;;;;5131899;27;20766;-75
2023/01/22 03:00:53;;;;;;;2.10;2.00;;;2.50;99.90;;;;;;5132439;27;20320;-76
2023/01/22 03:03:20;;;;;;;1.93;1.83;;;2.50;99.90;;;;;;5132032;27;20292;-75
2023/01/22 03:05:51;;;;;;;2.00;1.90;;;2.50;99.90;;;;;;5140140;27;20279;-75
2023/01/22 03:08:19;;;;;;;1.73;1.63;;;2.50;99.90;;;;;;5173077;27;20242;-75
2023/01/22 03:10:46;;;;;;;1.83;1.73;;;2.50;99.90;;;;;;5173237;27;20286;-76
2023/01/22 03:21:27;;;;;;;1.93;1.77;;;2.40;99.90;;;;;;5143207;27;20285;-76
2023/01/22 03:23:55;;;;;;;1.80;1.70;;;2.40;99.90;;;;;;5151677;27;20247;-75
2023/01/22 03:26:23;;;;;;;1.60;1.50;;;2.40;99.90;;;;;;5151907;27;21057;-76
2023/01/22 03:28:51;;;;;;;1.70;1.60;;;2.40;99.90;;;;;;5152472;27;20205;-75
2023/01/22 03:31:18;;;;;;;1.30;1.30;;;2.40;99.90;;;;;;5151720;27;20228;-75
2023/01/22 03:33:46;;;;;;;1.90;1.80;;;2.40;99.90;;;;;;5149535;27;20284;-76
2023/01/22 03:36:14;;;;;;;1.77;1.60;;;2.40;99.90;;;;;;5131449;27;20233;-75
2023/01/22 03:38:43;;;;;;;1.43;1.40;;;2.40;99.90;;;;;;5130874;27;20726;-75
2023/01/22 03:41:12;;;;;;;1.97;1.80;;;2.40;99.90;;;;;;5131291;27;20313;-75
2023/01/22 03:43:39;;;;;;;1.43;1.33;;;2.40;99.90;;;;;;5139980;27;20472;-76
2023/01/22 03:46:10;;;;;;;1.47;1.47;;;2.30;99.90;;;;;;5151687;27;20946;-76
2023/01/22 03:48:37;;;;;;;1.67;1.57;;;2.40;99.90;;;;;;5151869;27;20287;-76
2023/01/22 03:51:06;;;;;;;1.87;1.77;;;2.40;99.90;;;;;;5152207;27;20235;-77
2023/01/22 03:53:33;;;;;;;1.73;1.63;;;2.40;99.90;;;;;;5151416;27;20258;-77
2023/01/22 03:56:04;;;;;;;1.80;1.70;;;2.30;99.90;;;;;;5144611;27;20233;-76
2023/01/22 03:58:31;;;;;;;1.63;1.63;;;2.40;99.90;;;;;;5130975;27;20325;-76
2023/01/22 04:01:01;;;;;;;1.90;1.80;;;2.40;99.90;;;;;;5130933;27;20320;-77
2023/01/22 04:03:30;;;;;;;1.77;1.67;;;2.40;99.90;;;;;;5130845;27;20221;-77
2023/01/22 04:05:59;;;;;;;1.70;1.60;;;2.30;99.90;;;;;;5142223;27;20278;-76
2023/01/22 04:08:27;;;;;;;2.00;1.90;;;2.40;99.90;;;;;;5172427;27;20208;-76
2023/01/22 04:10:54;;;;;;;1.97;1.87;;;2.30;99.90;;;;;;5156208;27;20208;-77
2023/01/22 04:13:21;;;;;;;1.80;1.70;;;2.30;99.90;;;;;;5135377;27;20208;-77
2023/01/22 04:15:48;;;;;;;2.00;1.90;;;2.40;99.90;;;;;;5141141;27;20288;-77
2023/01/22 04:18:15;;;;;;;2.13;2.03;;;2.30;99.90;;;;;;5157626;27;20719;-77
2023/01/22 04:20:44;;;;;;;1.87;1.77;;;2.40;99.90;;;;;;5151301;27;20231;-76
2023/01/22 04:23:11;;;;;;;2.20;1.97;;;2.40;99.90;;;;;;5136032;27;20953;-76
2023/01/22 04:25:38;;;;;;;2.10;2.00;;;2.40;99.90;;;;;;5130340;27;20205;-76
2023/01/22 04:28:07;;;;;;;2.03;1.93;;;2.40;99.90;;;;;;5130463;27;20212;-76
2023/01/22 04:30:34;;;;;;;2.33;2.23;;;2.40;99.90;;;;;;5130593;27;20226;-76
2023/01/22 04:33:01;;;;;;;2.00;1.90;;;2.40;99.90;;;;;;5142887;27;20551;-76
2023/01/22 04:35:28;;;;;;;2.10;2.00;;;2.40;99.90;;;;;;5150696;27;20748;-76
2023/01/22 04:37:57;;;;;;;2.40;2.20;;;2.40;99.90;;;;;;5150709;27;20647;-76
2023/01/22 04:40:24;;;;;;;2.00;1.90;;;2.40;99.90;;;;;;5150377;27;20750;-76
2023/01/22 04:42:51;;;;;;;2.13;2.03;;;2.40;99.90;;;;;;5149350;27;20809;-77
2023/01/22 04:45:18;;;;;;;2.27;2.17;;;2.40;99.90;;;;;;5150668;27;20243;-76
2023/01/22 04:47:47;;;;;;;2.73;2.57;;;2.40;99.90;;;;;;5169483;27;20243;-77
2023/01/22 04:50:17;;;;;;;2.80;2.60;;;2.40;99.90;;;;;;5171525;27;20291;-76
2023/01/22 04:52:44;;;;;;;2.27;2.17;;;2.30;99.90;;;;;;5162012;27;20240;-76
2023/01/22 04:55:13;;;;;;;2.60;2.50;;;2.40;99.90;;;;;;5150631;27;20284;-76
2023/01/22 04:57:40;;;;;;;2.20;2.10;;;2.40;99.90;;;;;;5129427;27;20241;-76
2023/01/22 05:00:09;;;;;;;2.50;2.30;;;2.40;99.90;;;;;;5130066;27;20209;-76
2023/01/22 05:02:36;;;;;;;2.63;2.50;;;2.40;99.90;;;;;;5129751;27;20238;-76
2023/01/22 05:05:03;;;;;;;2.30;2.20;;;2.40;99.90;;;;;;5129747;27;20298;-77
2023/01/22 05:07:30;;;;;;;2.73;2.60;;;2.40;99.90;;;;;;5167537;27;20727;-76
2023/01/22 05:09:57;;;;;;;2.90;2.80;;;2.40;99.90;;;;;;5171411;27;20228;-76
2023/01/22 05:12:25;;;;;;;2.60;2.50;;;2.40;99.90;;;;;;5159318;27;20214;-76
2023/01/22 05:14:52;;;;;;;2.80;2.60;;;2.40;99.90;;;;;;5148421;27;20288;-76
2023/01/22 05:17:20;;;;;;;3.17;2.97;;;2.40;99.90;;;;;;5165058;27;21099;-76
2023/01/22 05:19:47;;;;;;;2.97;2.77;;;2.40;99.90;;;;;;5171296;27;20200;-76
2023/01/22 05:22:14;;;;;;;2.90;2.70;;;2.40;99.90;;;;;;5163189;27;20725;-79
2023/01/22 05:24:41;;;;;;;2.50;2.40;;;2.40;99.90;;;;;;5149656;27;20880;-78
2023/01/22 05:27:08;;;;;;;2.90;2.70;;;2.40;99.90;;;;;;5150124;27;20208;-78
2023/01/22 05:29:36;;;;;;;3.00;2.80;;;2.40;99.90;;;;;;5149722;27;20828;-77
2023/01/22 05:32:03;;;;;;;2.80;2.67;;;2.40;99.90;;;;;;5150529;27;20299;-74
2023/01/22 05:34:30;;;;;;;3.00;2.80;;;2.40;99.90;;;;;;5149296;27;20706;-74
2023/01/22 05:36:57;;;;;;;2.93;2.80;;;2.40;99.90;;;;;;5150259;27;20641;-74
2023/01/22 05:39:24;;;;;;;3.20;3.00;;;2.40;99.90;;;;;;5149646;27;21108;-74
2023/01/22 05:41:50;;;;;;;3.50;3.20;;;2.40;99.90;;;;;;5149632;27;20952;-74
2023/01/22 05:44:17;;;;;;;3.47;3.27;;;2.40;99.90;;;;;;5149323;27;20303;-75
2023/01/22 05:46:45;;;;;;;2.83;2.73;;;2.40;99.90;;;;;;5159650;27;20619;-78
2023/01/22 05:49:12;;;;;;;3.30;3.10;;;2.40;99.90;;;;;;5170176;27;20291;-74
2023/01/22 05:51:39;;;;;;;3.37;3.17;;;2.40;99.90;;;;;;5162523;27;20291;-74
2023/01/22 05:54:06;;;;;;;3.47;3.27;;;2.40;99.90;;;;;;5151681;27;20302;-74
2023/01/22 05:56:33;;;;;;;3.30;3.10;;;2.40;99.90;;;;;;5137339;27;20719;-74
2023/01/22 05:59:00;;;;;;;3.00;2.80;;;2.30;99.90;;;;;;5160128;27;20590;-74
2023/01/22 06:01:27;;;;;;;3.57;3.37;;;2.30;99.90;;;;;;5160790;27;20712;-74
2023/01/22 06:03:55;;;;;;;3.33;3.13;;;2.30;99.90;;;;;;5163796;27;20196;-74
2023/01/22 06:06:22;;;;;;;3.30;3.10;;;2.30;99.90;;;;;;5157174;27;20211;-73
2023/01/22 06:08:51;;;;;;;3.83;3.60;;;2.30;99.90;;;;;;5161105;27;20235;-73
2023/01/22 06:11:18;;;;;;;3.30;3.10;;;2.30;99.90;;;;;;5150612;27;20249;-73
2023/01/22 06:13:45;;;;;;;3.50;3.30;;;2.30;99.90;;;;;;5148957;27;20667;-79
2023/01/22 06:16:12;;;;;;;3.70;3.40;;;2.30;99.90;;;;;;5154406;27;20292;-71
2023/01/22 06:18:38;;;;;;;3.43;3.13;;;2.30;99.90;;;;;;5169818;27;20299;-73
2023/01/22 06:21:08;;;;;;;3.70;3.40;;;2.30;99.90;;;;;;5169191;27;20639;-72
2023/01/22 06:23:35;;;;;;;3.57;3.27;;;2.30;99.90;;;;;;5150241;27;20203;-72
2023/01/22 06:26:04;;;;;;;3.50;3.30;;;2.30;99.90;;;;;;5148249;27;20287;-72
2023/01/22 06:28:31;;;;;;;3.67;3.47;;;2.30;99.90;;;;;;5148368;27;20256;-73
2023/01/22 06:31:04;;;;;;;4.00;3.73;;;2.30;99.90;;;;;;5149253;27;20308;-72
2023/01/22 06:33:32;;;;;;;3.77;3.53;;;2.30;99.90;;;;;;5148821;27;20200;-73
2023/01/22 06:36:00;;;;;;;3.73;3.43;;;2.30;99.90;;;;;;5137281;27;20660;-73
2023/01/22 06:38:28;;;;;;;4.23;3.93;;;2.30;99.90;;;;;;5128502;28;20308;-72
2023/01/22 06:40:56;;;;;;;4.00;3.70;;;2.30;99.90;;;;;;5128238;27;20296;-72
2023/01/22 06:43:24;;;;;;;3.67;3.37;;;2.30;99.90;;;;;;5127845;28;20288;-73
2023/01/22 06:45:51;;;;;;;3.80;3.50;;;2.40;99.90;;;;;;5133405;27;20281;-73
2023/01/22 06:48:18;;;;;;;3.73;3.50;;;2.40;99.90;;;;;;5169451;27;20196;-72
2023/01/22 06:50:45;;;;;;;4.40;4.10;;;2.40;99.90;;;;;;5169611;27;20204;-72
2023/01/22 06:53:13;;;;;;;3.83;3.53;;;2.40;99.90;;;;;;5169326;27;20895;-73
2023/01/22 06:55:41;;;;;;;3.60;3.40;;;2.40;99.90;;;;;;5151509;27;20254;-72
2023/01/22 06:58:08;;;;;;;3.47;3.27;;;2.40;99.90;;;;;;5130480;27;20315;-72
2023/01/22 07:00:35;;;;;;;4.23;3.93;;;2.30;99.90;;;;;;5148742;27;20300;-73
2023/01/22 07:03:06;;;;;;;4.23;3.93;;;2.40;99.90;;;;;;5148427;27;20271;-73
2023/01/22 07:05:33;;;;;;;3.80;3.60;;;2.40;99.90;;;;;;5150047;27;20203;-73
2023/01/22 07:08:00;;;;;;;3.53;3.33;;;2.40;99.90;;;;;;5151932;27;20211;-73
2023/01/22 07:10:28;;;;;;;4.37;4.07;;;2.40;99.90;;;;;;5152279;27;20290;-73
2023/01/22 07:12:58;;;;;;;3.93;3.67;;;2.40;99.90;;;;;;5152364;27;20287;-73
2023/01/22 07:15:26;;;;;;;4.50;4.07;;;2.40;99.90;;;;;;5151389;27;20185;-73
2023/01/22 07:17:54;;;;;;;4.13;3.87;;;2.40;99.90;;;;;;5132017;27;20313;-73
2023/01/22 07:20:23;;;;;;;3.37;3.17;;;2.40;99.90;;;;;;5131454;27;20285;-72
2023/01/22 07:22:50;;;;;;;3.53;3.33;;;2.40;99.90;;;;;;5140728;27;20224;-73
2023/01/22 07:25:17;;;;;;;4.00;3.70;;;2.40;99.90;;;;;;5167145;27;20238;-73
2023/01/22 07:27:44;;;;;;;4.17;3.87;;;2.40;99.90;;;;;;5151612;27;20634;-73
2023/01/22 07:30:13;;;;;;;4.30;3.93;;;2.40;99.90;;;;;;5151892;27;20295;-72
2023/01/22 07:32:40;;;;;;;3.90;3.60;;;2.40;99.90;;;;;;5151530;27;20287;-73
2023/01/22 07:35:07;;;;;;;3.97;3.67;;;2.40;99.90;;;;;;5152071;27;20295;-73
2023/01/22 07:37:35;;;;;;;4.20;3.90;;;2.40;99.90;;;;;;5151462;27;20628;-73
2023/01/22 07:40:02;;;;;;;4.20;3.90;;;2.40;99.90;;;;;;5152074;27;20209;-73
2023/01/22 07:42:29;;;;;;;4.10;3.80;;;2.40;99.90;;;;;;5151787;27;20335;-72
2023/01/22 07:44:55;;;;;;;4.47;4.17;;;2.40;99.90;;;;;;5151889;27;20233;-72
2023/01/22 07:47:24;;;;;;;4.67;4.37;;;2.40;99.90;;;;;;5151875;27;20289;-73
2023/01/22 07:49:51;;;;;;;4.47;4.17;;;2.40;99.90;;;;;;5151541;27;20291;-72
2023/01/22 07:52:17;;;;;;;4.83;4.30;;;2.40;99.90;;;;;;5151535;27;20240;-72
2023/01/22 07:54:44;;;;;;;4.20;3.90;;;2.40;99.90;;;;;;5150924;27;20288;-73
2023/01/22 07:57:14;;;;;;;4.07;3.77;;;2.40;99.90;;;;;;5130686;27;20221;-72
2023/01/22 07:59:41;;;;;;;4.47;4.17;;;2.40;99.90;;;;;;5130338;27;20189;-73
2023/01/22 08:02:12;;;;;;;4.17;3.87;;;2.40;99.90;;;;;;5149847;27;20324;-72
2023/01/22 08:04:40;;;;;;;4.40;4.00;;;2.40;99.90;;;;;;5151045;27;20204;-72
2023/01/22 08:07:14;;;;;;;4.50;4.20;;;2.40;99.90;;;;;;5130424;27;20292;-73
2023/01/22 08:09:41;;;;;;;4.17;3.87;;;2.40;99.90;;;;;;5130225;27;20896;-73
2023/01/22 08:12:08;;;;;;;4.43;4.13;;;2.40;99.90;;;;;;5150861;27;20287;-73
2023/01/22 08:14:34;;;;;;;4.60;4.20;;;2.40;99.90;;;;;;5150608;27;20763;-72
2023/01/22 08:17:01;;;;;;;4.37;3.97;;;2.40;99.90;;;;;;5162539;27;20283;-73
2023/01/22 08:19:28;;;;;;;4.53;4.17;;;2.50;99.90;;;;;;5163625;27;20203;-72
2023/01/22 08:21:57;;;;;;;4.20;3.80;;;2.40;99.90;;;;;;5150934;27;20220;-72
2023/01/22 08:24:24;;;;;;;4.40;4.10;;;2.40;99.90;;;;;;5150950;27;20648;-72
2023/01/22 08:26:51;;;;;;;4.17;3.83;;;2.50;99.90;;;;;;5151307;27;20302;-73
2023/01/22 08:29:17;;;;;;;4.10;3.80;;;2.40;99.90;;;;;;5150743;27;20638;-73
2023/01/22 08:31:44;;;;;;;3.90;3.60;;;2.50;99.90;;;;;;5150080;27;20201;-73
2023/01/22 08:34:11;;;;;;;4.40;4.07;;;2.50;99.90;;;;;;5150789;27;20211;-73
2023/01/22 08:36:38;;;;;;;4.17;3.87;;;2.50;99.90;;;;;;5150614;27;20292;-73
2023/01/22 08:39:06;;;;;;;4.43;4.13;;;2.50;99.90;;;;;;5150829;27;20684;-73
2023/01/22 08:41:33;;;;;;;4.37;4.07;;;2.50;99.90;;;;;;5145822;27;20208;-73
2023/01/22 08:44:00;;;;;;;4.37;3.97;;;2.50;99.90;;;;;;5129338;27;20241;-73
2023/01/22 08:46:27;;;;;;;4.43;4.03;;;2.60;99.90;;;;;;5129473;27;20288;-73
2023/01/22 08:48:54;;;;;;;3.93;3.63;;;2.60;99.90;;;;;;5129420;27;20402;-73
2023/01/22 08:51:23;;;;;;;4.77;4.37;;;2.60;99.90;;;;;;5130860;27;20292;-73
2023/01/22 08:53:50;;;;;;;4.27;3.97;;;2.60;99.90;;;;;;5150011;27;20216;-73
2023/01/22 08:56:18;;;;;;;4.50;4.13;;;2.50;99.90;;;;;;5142332;27;20529;-73
2023/01/22 08:58:48;;;;;;;4.00;3.70;;;2.60;99.90;;;;;;5149750;27;20223;-73
2023/01/22 09:01:16;;;;;;;4.40;4.10;;;2.60;99.90;;;;;;5148736;27;20706;-73
2023/01/22 09:03:43;;;;;;;4.10;3.80;;;2.60;99.90;;;;;;5129387;27;20229;-73
2023/01/22 09:06:11;;;;;;;4.13;3.83;;;2.60;99.90;;;;;;5129614;27;20212;-73
2023/01/22 09:08:37;;;;;;;4.70;4.30;;;2.60;99.90;;;;;;5129305;27;20291;-73
2023/01/22 09:11:05;;;;;;;4.10;3.80;;;2.60;99.90;;;;;;5129433;27;20225;-73
2023/01/22 09:13:33;;;;;;;4.47;4.17;;;2.60;99.90;;;;;;5149322;27;20211;-73
2023/01/22 09:16:00;;;;;;;4.13;3.83;;;2.60;99.90;;;;;;5153362;27;20700;-73
2023/01/22 09:18:27;;;;;;;4.30;4.00;;;2.60;99.90;;;;;;5170668;27;20201;-73
2023/01/22 09:20:54;;;;;;;4.40;4.00;;;2.60;99.90;;;;;;5170802;27;20657;-73
2023/01/22 09:23:21;;;;;;;4.13;3.83;;;2.60;99.90;;;;;;5153427;27;20652;-73
2023/01/22 09:25:48;;;;;;;4.50;4.10;;;2.60;99.90;;;;;;5149692;27;20208;-73
2023/01/22 09:28:15;;;;;;;4.80;4.40;;;2.60;99.90;;;;;;5149464;27;20201;-73
2023/01/22 09:30:43;;;;;;;4.73;4.33;;;2.60;99.90;;;;;;5149909;27;20229;-73
2023/01/22 09:33:10;;;;;;;4.37;4.07;;;2.60;99.90;;;;;;5148612;27;20669;-73
2023/01/22 09:35:37;;;;;;;4.80;4.40;;;2.60;99.90;;;;;;5128855;27;20386;-73
2023/01/22 09:38:04;;;;;;;4.43;4.10;;;2.60;99.90;;;;;;5128383;27;20206;-73
2023/01/22 09:40:36;;;;;;;4.20;3.90;;;2.60;99.90;;;;;;5128843;27;20210;-73
2023/01/22 09:43:06;;;;;;;4.73;4.43;;;2.60;99.90;;;;;;5129016;27;20321;-73
2023/01/22 09:45:37;;;;;;;4.63;4.33;;;2.70;99.90;;;;;;5145674;27;20288;-73
2023/01/22 09:48:11;;;;;;;4.53;4.23;;;2.60;99.90;;;;;;5141399;27;20722;-73
2023/01/22 09:50:40;;;;;;;4.70;4.40;;;2.60;99.90;;;;;;5149446;27;20280;-73
2023/01/22 09:53:13;;;;;;;4.60;4.30;;;2.60;99.90;;;;;;5142606;27;20731;-73
2023/01/22 09:55:46;;;;;;;4.70;4.30;;;2.60;99.90;;;;;;5141053;27;20201;-73
2023/01/22 09:58:21;;;;;;;4.50;4.20;;;2.70;99.90;;;;;;5127765;27;20279;-73
2023/01/22 10:00:53;;;;;;;4.50;4.13;;;2.70;99.90;;;;;;5128494;27;20308;-73
2023/01/22 10:03:25;;;;;;;4.57;4.23;;;2.60;99.90;;;;;;5128381;28;20689;-73
2023/01/22 10:05:56;;;;;;;4.50;4.10;;;2.70;99.90;;;;;;5152746;27;20180;-73
2023/01/22 10:08:25;;;;;;;4.47;4.13;;;2.70;99.90;;;;;;5169851;27;20272;-73
2023/01/22 10:10:53;;;;;;;4.53;4.23;;;2.70;99.90;;;;;;5169919;27;20208;-73
2023/01/22 10:13:22;;;;;;;4.97;4.57;;;2.70;99.90;;;;;;5149836;27;20234;-73
2023/01/22 10:15:51;;;;;;;4.83;4.53;;;2.70;99.90;;;;;;5134535;27;20201;-73
2023/01/22 10:18:29;;;;;;;4.97;4.57;;;2.70;99.90;;;;;;5169774;27;20246;-73
2023/01/22 10:20:57;;;;;;;5.10;4.53;;;2.70;99.90;;;;;;5169852;27;20291;-73
2023/01/22 10:23:25;;;;;;;5.17;4.77;;;2.70;99.90;;;;;;5151912;27;20649;-73
2023/01/22 10:25:59;;;;;;;5.07;4.63;;;2.70;99.90;;;;;;5149080;27;20295;-73
2023/01/22 10:28:28;;;;;;;7.53;4.80;;;2.80;99.90;;;;;;5148884;27;20292;-73
2023/01/22 10:30:57;;;;;;;4.77;4.37;;;2.80;99.90;;;;;;5149045;27;20292;-73
2023/01/22 10:33:27;;;;;;;5.13;4.73;;;2.80;99.90;;;;;;5148745;27;20208;-73
2023/01/22 10:35:56;;;;;;;4.90;4.60;;;2.70;99.90;;;;;;5149301;27;20197;-73
2023/01/22 10:38:26;;;;;;;4.90;4.40;;;2.80;99.90;;;;;;5148603;27;20573;-73
2023/01/22 10:40:56;;;;;;;4.87;4.47;;;2.80;99.90;;;;;;5151177;27;20287;-73
2023/01/22 10:43:31;;;;;;;4.83;4.43;;;2.80;99.90;;;;;;5152863;27;20303;-73
2023/01/22 10:46:04;;;;;;;5.10;4.60;;;2.80;99.90;;;;;;5137623;27;20204;-73
2023/01/22 10:48:33;;;;;;;5.20;4.80;;;2.80;99.90;;;;;;5152744;27;20269;-73
2023/01/22 10:51:15;;;;;;;5.13;4.73;;;2.80;99.90;;;;;;5152709;27;20702;-74
2023/01/22 10:53:49;;;;;;;5.33;4.93;;;2.90;99.90;;;;;;5152523;27;20197;-73
2023/01/22 10:56:27;;;;;;;6.60;4.70;;;2.80;99.90;;;;;;5141444;27;20189;-73
2023/01/22 10:58:55;;;;;;;4.73;4.43;;;2.90;99.90;;;;;;5152588;27;20315;-73
2023/01/22 11:01:28;;;;;;;7.57;5.13;;;2.90;99.90;;;;;;5152287;27;20279;-73
2023/01/22 11:03:56;;;;;;;6.53;4.90;;;2.90;99.90;;;;;;5151503;27;20698;-73
2023/01/22 11:06:28;;;;;;;5.07;4.67;;;2.90;99.90;;;;;;5161878;27;20283;-73
2023/01/22 11:09:02;;;;;;;5.37;4.97;;;2.90;99.90;;;;;;5158852;27;20284;-73
2023/01/22 11:11:35;;;;;;;6.17;5.67;;;2.90;99.90;;;;;;5152119;27;20276;-73
2023/01/22 11:14:06;;;;;;;5.40;4.90;;;2.90;99.90;;;;;;5152221;27;20295;-73
2023/01/22 11:16:37;;;;;;;5.70;5.27;;;2.90;99.90;;;;;;5160784;27;20204;-73
2023/01/22 11:19:09;;;;;;;5.47;5.03;;;2.90;99.90;;;;;;5173055;27;20429;-73
2023/01/22 11:21:39;;;;;;;5.57;5.07;;;2.90;99.90;;;;;;5170876;27;20836;-73
2023/01/22 11:24:12;;;;;;;6.00;5.50;;;2.90;99.90;;;;;;5151373;27;20224;-73
2023/01/22 11:27:08;;;;;;;6.50;5.90;;;2.90;99.90;;;;;;5151846;27;20631;-73
2023/01/22 11:30:02;;;;;;;5.70;5.30;;;2.90;99.90;;;;;;5138262;27;20757;-73
2023/01/22 11:32:51;;;;;;;5.80;5.30;;;2.90;99.90;;;;;;5141969;27;20654;-73
2023/01/22 11:35:27;;;;;;;5.60;5.10;;;2.90;99.90;;;;;;5140866;27;20609;-73
2023/01/22 11:38:06;;;;;;;5.73;5.23;;;2.90;99.90;;;;;;5152385;27;20280;-73
2023/01/22 11:40:35;;;;;;;5.47;4.97;;;2.90;99.90;;;;;;5151557;27;20351;-73
2023/01/22 11:43:13;;;;;;;5.20;4.73;;;2.90;99.90;;;;;;5140976;27;20312;-73
2023/01/22 11:46:02;;;;;;;5.63;5.13;;;2.90;99.90;;;;;;5138783;27;20193;-73
2023/01/22 11:48:44;;;;;;;5.60;5.20;;;2.90;99.90;;;;;;5155789;27;20299;-73
2023/01/22 11:51:22;;;;;;;5.33;4.93;;;2.90;99.90;;;;;;5151420;27;20193;-73
2023/01/22 11:54:00;;;;;;;5.87;5.37;;;3.00;99.90;;;;;;5134751;27;20969;-73
2023/01/22 11:56:57;;;;;;;5.83;5.33;;;3.00;99.90;;;;;;5130736;27;20219;-73
2023/01/22 11:59:35;;;;;;;6.00;5.50;;;3.00;99.90;;;;;;5117246;27;20249;-73
2023/01/22 12:02:22;;;;;;;6.17;5.67;;;3.00;99.90;;;;;;5132138;27;20340;-72
2023/01/22 12:05:09;;;;;;;6.07;5.57;;;3.00;99.90;;;;;;5151148;27;20339;-72
2023/01/22 12:08:01;;;;;;;6.63;6.03;;;3.00;99.90;;;;;;5169298;27;20278;-72
2023/01/22 12:10:58;;;;;;;6.47;5.87;;;3.00;99.90;;;;;;5130722;27;20268;-72
2023/01/22 12:13:42;;;;;;;5.90;5.47;;;3.00;99.90;;;;;;5130460;27;20213;-72
2023/01/22 12:16:17;;;;;;;6.03;5.53;;;3.00;99.90;;;;;;5140314;27;20678;-73
2023/01/22 12:19:15;;;;;;;6.30;5.80;;;3.00;99.90;;;;;;5171754;27;20282;-74
2023/01/22 12:21:55;;;;;;;6.17;5.60;;;3.00;99.90;;;;;;5169064;27;20292;-73
2023/01/22 12:24:29;;;;;;;6.60;6.00;;;3.00;99.90;;;;;;5150750;27;20702;-73
2023/01/22 12:27:00;;;;;;;6.13;5.47;;;3.00;99.90;;;;;;5130331;27;20224;-74
2023/01/22 12:29:32;;;;;;;6.20;5.60;;;2.90;99.90;;;;;;5130195;27;20292;-73
2023/01/22 12:32:07;;;;;;;6.53;5.93;;;2.90;99.90;;;;;;5130378;27;20288;-73
2023/01/22 12:34:39;;;;;;;6.63;6.10;;;2.90;99.90;;;;;;5130018;27;20222;-73
2023/01/22 12:37:07;;;;;;;6.17;5.73;;;2.90;99.90;;;;;;5145629;27;20240;-74
2023/01/22 12:39:43;;;;;;;5.20;4.80;;;3.00;99.90;;;;;;5150371;27;20463;-73
2023/01/22 12:42:22;;;;;;;5.80;5.30;;;2.90;99.90;;;;;;5150197;27;20287;-73
2023/01/22 12:44:57;;;;;;;5.23;4.83;;;2.90;99.90;;;;;;5133593;27;20522;-73
2023/01/22 12:47:29;;;;;;;5.97;5.47;;;2.90;99.90;;;;;;5160790;27;20294;-74
2023/01/22 12:49:56;;;;;;;6.37;5.87;;;2.90;99.90;;;;;;5170891;27;20618;-73
2023/01/22 12:52:35;;;;;;;6.40;5.83;;;2.90;99.90;;;;;;5165022;27;20855;-72
2023/01/22 12:55:21;;;;;;;5.83;5.30;;;2.90;99.90;;;;;;5146413;27;20189;-72
2023/01/22 12:57:48;;;;;;;6.00;5.40;;;2.90;99.90;;;;;;5129515;27;20323;-72
2023/01/22 13:00:29;;;;;;;6.70;6.10;;;2.90;99.90;;;;;;5133563;27;20220;-72
2023/01/22 13:02:56;;;;;;;6.70;6.10;;;2.90;99.90;;;;;;5149679;27;20197;-72
2023/01/22 13:05:40;;;;;;;6.43;5.93;;;2.90;99.90;;;;;;5131653;27;20209;-72
2023/01/22 13:08:38;;;;;;;6.07;5.47;;;2.90;99.90;;;;;;5129673;27;20201;-72
2023/01/22 13:11:09;;;;;;;6.83;6.23;;;2.90;99.90;;;;;;5129036;27;20686;-72
2023/01/22 13:13:42;;;;;;;7.20;6.50;;;2.90;99.90;;;;;;5132357;27;20287;-72
2023/01/22 13:16:20;;;;;;;6.60;6.00;;;2.90;99.90;;;;;;5154903;27;20207;-72
2023/01/22 13:18:49;;;;;;;6.40;5.80;;;2.90;99.90;;;;;;5170798;27;20282;-72